createdAt,value
2018-07-07T00:02:07.264Z,97.90
2018-07-07T00:04:37.440Z,98.00
2018-07-07T00:07:08.093Z,96.90
2018-07-07T00:09:38.005Z,95.90
2018-07-07T00:12:08.876Z,96.70
2018-07-07T00:14:39.567Z,96.60
2018-07-07T00:17:09.832Z,96.40
2018-07-07T00:19:45.128Z,96.50
2018-07-07T00:22:21.400Z,95.40
2018-07-07T00:24:55.232Z,95.90
2018-07-07T00:27:26.102Z,95.80
2018-07-07T00:29:57.317Z,96.10
2018-07-07T00:32:35.612Z,96.20
2018-07-07T00:35:07.558Z,96.10
2018-07-07T00:37:38.904Z,94.70
2018-07-07T00:40:13.349Z,95.10
2018-07-07T00:42:45.781Z,95.60
2018-07-07T00:48:06.064Z,94.30
2018-07-07T00:50:37.388Z,95.30
2018-07-07T00:53:08.269Z,95.90
2018-07-07T00:55:39.032Z,96.50
2018-07-07T01:00:56.826Z,96.40
2018-07-07T01:03:36.410Z,95.60
2018-07-07T01:06:09.282Z,95.00
2018-07-07T01:08:41.465Z,95.30
2018-07-07T01:11:17.831Z,95.50
2018-07-07T01:13:54.331Z,95.70
2018-07-07T01:16:24.849Z,95.60
2018-07-07T01:18:59.918Z,95.10
2018-07-07T01:21:36.145Z,94.90
2018-07-07T01:24:07.598Z,94.80
2018-07-07T01:26:37.776Z,92.50
2018-07-07T01:29:07.876Z,93.00
2018-07-07T01:31:38.516Z,92.20
2018-07-07T01:34:08.498Z,92.90
2018-07-07T01:36:38.482Z,92.80
2018-07-07T01:39:08.583Z,93.20
2018-07-07T01:41:38.586Z,92.90
2018-07-07T01:44:08.543Z,92.60
2018-07-07T01:46:38.546Z,92.20
2018-07-07T01:49:08.543Z,91.60
2018-07-07T01:51:38.609Z,92.40
2018-07-07T01:56:38.347Z,92.40
2018-07-07T01:59:08.316Z,92.70
2018-07-07T02:01:39.063Z,92.60
2018-07-07T02:04:08.883Z,92.40
2018-07-07T02:06:38.821Z,92.30
2018-07-07T02:09:09.744Z,92.40
2018-07-07T02:11:43.680Z,92.40
2018-07-07T02:14:18.013Z,92.60
2018-07-07T02:16:52.980Z,92.40
2018-07-07T02:19:23.811Z,92.60
2018-07-07T02:22:00.161Z,92.80
2018-07-07T02:24:40.845Z,92.90
2018-07-07T02:29:48.362Z,93.40
2018-07-07T02:32:18.596Z,93.30
2018-07-07T02:34:50.594Z,93.30
2018-07-07T02:37:23.445Z,93.50
2018-07-07T02:39:59.306Z,94.10
2018-07-07T02:42:34.408Z,94.60
2018-07-07T02:45:04.845Z,94.10
2018-07-07T02:47:35.528Z,93.60
2018-07-07T02:50:05.844Z,93.60
2018-07-07T02:52:36.499Z,94.30
2018-07-07T02:55:10.018Z,94.30
2018-07-07T02:57:42.998Z,94.10
2018-07-07T03:00:17.203Z,93.70
2018-07-07T03:02:47.475Z,93.50
2018-07-07T03:05:19.117Z,93.90
2018-07-07T03:07:49.130Z,93.40
2018-07-07T03:10:19.017Z,93.20
2018-07-07T03:12:48.950Z,93.80
2018-07-07T03:15:23.901Z,93.80
2018-07-07T03:17:59.188Z,93.60
2018-07-07T03:20:35.059Z,94.10
2018-07-07T03:25:37.840Z,94.30
2018-07-07T03:28:08.720Z,94.50
2018-07-07T03:30:38.646Z,94.10
2018-07-07T03:33:08.584Z,93.80
2018-07-07T03:35:38.627Z,93.20
2018-07-07T03:38:08.746Z,93.40
2018-07-07T03:40:38.778Z,93.40
2018-07-07T03:43:08.809Z,93.80
2018-07-07T03:45:39.972Z,94.20
2018-07-07T03:50:39.603Z,94.90
2018-07-07T03:53:10.841Z,94.70
2018-07-07T03:55:44.133Z,93.80
2018-07-07T03:58:16.809Z,93.90
2018-07-07T04:00:50.893Z,93.40
2018-07-07T04:03:24.071Z,93.70
2018-07-07T04:05:55.894Z,93.80
2018-07-07T04:08:26.630Z,94.20
2018-07-07T04:10:57.243Z,95.10
2018-07-07T04:13:28.076Z,95.50
2018-07-07T04:15:58.950Z,95.50
2018-07-07T04:18:34.878Z,96.00
2018-07-07T04:21:06.943Z,95.60
2018-07-07T04:23:37.397Z,94.50
2018-07-07T04:26:08.160Z,93.50
2018-07-07T04:28:38.335Z,93.10
2018-07-07T04:31:09.163Z,93.00
2018-07-07T04:33:39.049Z,94.10
2018-07-07T04:36:09.035Z,94.70
2018-07-07T04:38:39.656Z,95.30
2018-07-07T04:41:09.618Z,94.60
2018-07-07T04:43:39.533Z,94.90
2018-07-07T04:46:09.484Z,95.40
2018-07-07T04:48:39.398Z,95.30
2018-07-07T04:51:09.342Z,95.90
2018-07-07T04:53:39.247Z,95.80
2018-07-07T04:56:09.202Z,96.00
2018-07-07T04:58:39.271Z,95.30
2018-07-07T05:01:09.186Z,94.50
2018-07-07T05:03:39.231Z,94.90
2018-07-07T05:06:10.020Z,95.20
2018-07-07T05:08:40.207Z,95.50
2018-07-07T05:11:10.145Z,94.80
2018-07-07T05:13:39.980Z,94.00
2018-07-07T05:16:09.984Z,93.70
2018-07-07T05:18:39.927Z,93.90
2018-07-07T05:21:09.979Z,93.50
2018-07-07T05:23:39.980Z,93.80
2018-07-07T05:26:10.086Z,92.80
2018-07-07T05:28:39.968Z,92.40
2018-07-07T05:31:10.010Z,91.60
2018-07-07T05:33:40.071Z,91.90
2018-07-07T05:36:10.083Z,92.30
2018-07-07T05:38:40.073Z,91.20
2018-07-07T05:41:10.079Z,90.60
2018-07-07T05:43:41.145Z,91.00
2018-07-07T05:46:13.111Z,91.00
2018-07-07T05:48:43.763Z,90.90
2018-07-07T05:51:14.852Z,91.60
2018-07-07T05:53:47.771Z,91.10
2018-07-07T05:56:25.385Z,91.30
2018-07-07T05:58:55.972Z,90.60
2018-07-07T06:01:26.220Z,91.00
2018-07-07T06:03:56.275Z,91.20
2018-07-07T06:06:26.731Z,91.10
2018-07-07T06:08:57.195Z,91.00
2018-07-07T06:11:27.701Z,91.60
2018-07-07T06:13:58.259Z,91.30
2018-07-07T06:16:29.189Z,91.30
2018-07-07T06:19:00.263Z,91.50
2018-07-07T06:21:31.159Z,91.40
2018-07-07T06:24:01.862Z,91.40
2018-07-07T06:26:32.754Z,91.40
2018-07-07T06:31:33.611Z,91.40
2018-07-07T06:34:04.944Z,91.20
2018-07-07T06:36:35.546Z,91.50
2018-07-07T06:39:07.042Z,91.30
2018-07-07T06:41:37.399Z,91.60
2018-07-07T06:44:08.856Z,92.20
2018-07-07T06:46:39.071Z,91.00
2018-07-07T06:49:09.703Z,91.10
2018-07-07T06:51:43.830Z,90.30
2018-07-07T06:54:23.858Z,90.90
2018-07-07T06:57:13.385Z,90.10
2018-07-07T07:02:17.788Z,90.30
2018-07-07T07:04:55.704Z,89.70
2018-07-07T07:10:09.997Z,88.40
2018-07-07T07:12:41.553Z,87.00
2018-07-07T07:15:12.377Z,87.80
2018-07-07T07:17:45.613Z,87.00
2018-07-07T07:20:20.486Z,86.00
2018-07-07T07:22:52.698Z,86.20
2018-07-07T07:25:23.374Z,86.90
2018-07-07T07:27:54.358Z,84.60
2018-07-07T07:30:24.713Z,85.50
2018-07-07T07:32:55.722Z,85.20
2018-07-07T07:35:25.990Z,85.20
2018-07-07T07:37:57.837Z,84.60
2018-07-07T07:40:32.016Z,83.20
2018-07-07T07:43:03.453Z,82.00
2018-07-07T07:45:36.049Z,83.10
2018-07-07T07:48:08.723Z,81.50
2018-07-07T07:50:39.427Z,81.20
2018-07-07T07:53:10.289Z,81.70
2018-07-07T07:55:40.192Z,82.80
2018-07-07T07:58:14.258Z,83.70
2018-07-07T08:03:38.290Z,82.90
2018-07-07T08:06:09.553Z,82.00
2018-07-07T08:11:39.693Z,82.90
2018-07-07T08:14:11.819Z,82.40
2018-07-07T08:20:05.976Z,82.30
2018-07-07T08:22:40.021Z,81.50
2018-07-07T08:25:10.807Z,77.60
2018-07-07T08:27:40.786Z,76.80
2018-07-07T08:30:10.600Z,77.10
2018-07-07T08:32:40.551Z,76.40
2018-07-07T08:35:11.198Z,78.40
2018-07-07T08:37:41.114Z,78.30
2018-07-07T08:40:13.707Z,76.50
2018-07-07T08:42:54.780Z,77.70
2018-07-07T08:49:08.864Z,78.00
2018-07-07T08:56:40.270Z,76.10
2018-07-07T08:59:10.650Z,74.10
2018-07-07T09:07:10.787Z,74.10
2018-07-07T09:09:41.233Z,74.40
2018-07-07T09:12:11.044Z,74.50
2018-07-07T09:14:40.931Z,73.70
2018-07-07T09:17:10.853Z,75.80
2018-07-07T09:24:40.974Z,76.50
2018-07-07T09:27:10.832Z,75.30
2018-07-07T09:29:41.266Z,75.10
2018-07-07T09:32:11.076Z,75.70
2018-07-07T09:34:41.155Z,75.90
2018-07-07T09:37:11.163Z,75.20
2018-07-07T09:39:41.123Z,74.10
2018-07-07T09:54:41.297Z,74.10
2018-07-07T09:57:11.116Z,74.10
2018-07-07T09:59:41.384Z,74.30
2018-07-07T10:02:11.363Z,74.10
2018-07-07T10:09:38.151Z,71.80
2018-07-07T10:12:11.271Z,72.00
2018-07-07T10:14:41.293Z,70.90
2018-07-07T10:17:11.257Z,70.40
2018-07-07T10:19:41.212Z,70.50
2018-07-07T10:22:11.337Z,69.90
2018-07-07T10:24:41.323Z,70.50
2018-07-07T10:27:11.303Z,70.00
2018-07-07T10:29:41.254Z,69.10
2018-07-07T10:32:11.268Z,70.40
2018-07-07T10:34:41.322Z,70.10
2018-07-07T10:37:11.251Z,70.00
2018-07-07T10:39:41.210Z,71.20
2018-07-07T10:42:11.275Z,70.40
2018-07-07T10:44:41.549Z,70.70
2018-07-07T11:27:37.834Z,69.40
2018-07-07T11:30:09.225Z,68.70
2018-07-07T11:32:50.398Z,67.70
2018-07-07T11:35:36.538Z,67.70
2018-07-07T11:55:51.678Z,68.40
2018-07-07T11:58:22.522Z,65.90
2018-07-07T12:39:48.668Z,66.60
2018-07-07T12:42:31.904Z,66.90
2018-07-07T12:54:00.665Z,64.30
2018-07-07T13:27:40.587Z,64.50
2018-07-07T13:30:11.383Z,63.10
2018-07-07T13:32:41.602Z,63.20
2018-07-07T13:35:11.463Z,63.10
2018-07-07T13:37:41.337Z,63.50
2018-07-07T13:40:11.223Z,63.50
2018-07-07T13:48:09.144Z,62.70
2018-07-07T13:53:11.666Z,61.80
2018-07-07T13:55:41.592Z,62.20
2018-07-07T14:22:48.433Z,62.80
2018-07-07T14:36:50.721Z,61.50
2018-07-07T14:49:19.153Z,59.60
2018-07-07T15:14:35.417Z,60.70
2018-07-07T15:17:19.715Z,60.00
2018-07-07T16:01:16.575Z,61.90
2018-07-07T16:18:15.448Z,62.40
2018-07-07T16:20:48.272Z,61.70
2018-07-07T16:23:18.167Z,61.60
2018-07-07T16:25:48.215Z,62.20
2018-07-07T16:34:46.455Z,61.50
2018-07-07T16:44:19.048Z,62.40
2018-07-07T16:46:49.505Z,61.60
2018-07-07T17:07:59.226Z,61.50
2018-07-07T17:16:43.117Z,63.00
2018-07-07T17:22:42.712Z,63.00
2018-07-07T17:55:17.086Z,65.10
2018-07-07T17:57:58.471Z,65.90
2018-07-07T18:00:50.862Z,67.50
2018-07-07T18:03:22.960Z,68.30
2018-07-07T18:08:37.351Z,68.10
2018-07-07T18:11:11.635Z,69.10
2018-07-07T18:13:42.738Z,68.80
2018-07-07T18:16:13.174Z,68.60
2018-07-07T18:18:44.396Z,69.60
2018-07-07T18:21:21.593Z,70.00
2018-07-07T18:23:56.907Z,70.70
2018-07-07T18:26:36.945Z,70.80
2018-07-07T18:29:06.950Z,70.30
2018-07-07T18:31:36.851Z,69.50
2018-07-07T18:34:06.911Z,70.30
2018-07-07T18:39:36.720Z,70.70
2018-07-07T18:42:07.955Z,70.40
2018-07-07T18:47:11.672Z,71.10
2018-07-07T18:49:48.667Z,71.30
2018-07-07T18:52:29.449Z,71.30
2018-07-07T18:58:03.641Z,72.30
2018-07-07T19:22:42.463Z,75.20
2018-07-07T19:25:21.849Z,75.10
2018-07-07T19:27:52.185Z,75.00
2018-07-07T19:30:23.723Z,76.00
2018-07-07T19:33:04.465Z,76.80
2018-07-07T19:35:45.988Z,76.70
2018-07-07T19:38:33.128Z,78.10
2018-07-07T19:47:55.011Z,77.80
2018-07-07T19:53:42.891Z,79.00
2018-07-07T19:56:23.349Z,78.70
2018-07-07T20:07:39.843Z,78.70
2018-07-07T20:22:41.695Z,79.10
2018-07-07T20:31:11.043Z,79.80
2018-07-07T20:33:41.623Z,79.60
2018-07-07T20:36:20.477Z,80.20
2018-07-07T20:39:12.567Z,80.40
2018-07-07T20:42:44.965Z,81.00
2018-07-07T20:45:25.279Z,81.40
2018-07-07T20:48:00.748Z,81.00
2018-07-07T20:50:55.925Z,80.90
2018-07-07T20:59:55.438Z,81.60
2018-07-07T21:07:26.467Z,82.00
2018-07-07T21:10:24.921Z,82.60
2018-07-07T21:12:55.979Z,82.30
2018-07-07T21:15:31.506Z,83.10
2018-07-07T21:18:08.991Z,83.10
2018-07-07T21:20:40.338Z,83.20
2018-07-07T21:23:11.045Z,83.40
2018-07-07T21:25:42.131Z,83.20
2018-07-07T21:28:18.277Z,83.20
2018-07-07T21:33:51.340Z,83.30
2018-07-07T21:36:31.199Z,83.80
2018-07-07T21:44:02.825Z,84.40
2018-07-07T21:49:18.818Z,85.90
2018-07-07T21:51:52.564Z,86.00
2018-07-07T21:54:24.361Z,86.60
2018-07-07T21:56:59.107Z,87.90
2018-07-07T21:59:35.319Z,87.90
2018-07-07T22:02:14.257Z,88.80
2018-07-07T22:04:50.765Z,88.70
2018-07-07T22:07:26.198Z,89.30
2018-07-07T22:09:56.889Z,88.20
2018-07-07T22:12:37.325Z,88.70
2018-07-07T22:21:13.882Z,88.50
2018-07-07T22:23:51.144Z,90.10
2018-07-07T22:26:36.130Z,90.00
2018-07-07T22:29:17.346Z,90.30
2018-07-07T22:31:58.003Z,90.60
2018-07-07T22:34:45.842Z,90.80
2018-07-07T22:37:21.774Z,90.70
2018-07-07T22:39:53.253Z,90.70
2018-07-07T22:42:23.727Z,90.80
2018-07-07T22:45:06.772Z,90.90
2018-07-07T22:47:48.735Z,91.10
2018-07-07T22:50:22.252Z,91.30
2018-07-07T22:52:52.201Z,91.50
2018-07-07T22:55:22.412Z,92.10
2018-07-07T22:57:52.419Z,92.10
2018-07-07T23:00:22.503Z,92.10
2018-07-07T23:05:22.191Z,92.60
2018-07-07T23:07:52.546Z,92.60
2018-07-07T23:10:22.539Z,92.50
2018-07-07T23:12:52.401Z,92.70
2018-07-07T23:15:22.354Z,93.30
2018-07-07T23:17:52.519Z,93.30
2018-07-07T23:20:25.097Z,93.40
2018-07-07T23:25:40.498Z,93.90
2018-07-07T23:28:18.016Z,93.90
2018-07-07T23:30:50.883Z,94.30
2018-07-07T23:36:07.608Z,95.20
2018-07-07T23:38:40.283Z,95.40
2018-07-07T23:41:16.573Z,95.20
2018-07-07T23:46:18.200Z,94.80
2018-07-07T23:48:49.273Z,95.10
2018-07-07T23:51:20.507Z,95.60
2018-07-07T23:53:51.665Z,95.50
2018-07-07T23:56:22.550Z,95.80
2018-07-07T23:58:57.517Z,95.70
